Time;durP1;ratioP1;P1;durP2;ratioP2;P2;SDS_P1;SDS_P2;PMS_P1;PMS_P2;Temp;Humidity;BMP_temperature;BMP_pressure;BME280_temperature;BME280_humidity;BME280_pressure;Samples;Min_cycle;Max_cycle;Signal;HPM_P1;HPM_P2
2022/10/25 00:00:17;;;;;;;4.60;2.25;;;12.00;99.90;;;;;;5017746;28;20029;-73
2022/10/25 00:02:43;;;;;;;5.10;2.40;;;11.90;99.90;;;;;;5035474;28;20018;-75
2022/10/25 00:05:13;;;;;;;3.80;2.13;;;11.80;99.90;;;;;;5035584;28;20025;-75
2022/10/25 00:07:39;;;;;;;5.28;2.30;;;11.80;99.90;;;;;;5035110;28;20045;-74
2022/10/25 00:10:05;;;;;;;4.68;2.08;;;11.80;99.90;;;;;;5017562;28;20487;-75
2022/10/25 00:12:30;;;;;;;4.43;2.40;;;11.80;99.90;;;;;;5017493;28;20112;-75
2022/10/25 00:15:00;;;;;;;6.30;2.20;;;11.80;99.90;;;;;;5017539;28;20559;-75
2022/10/25 00:17:26;;;;;;;5.78;2.10;;;11.80;99.90;;;;;;5022251;28;20033;-74
2022/10/25 00:19:52;;;;;;;4.47;1.70;;;11.80;99.90;;;;;;4997769;28;20030;-75
2022/10/25 00:22:18;;;;;;;2.15;1.77;;;11.60;99.90;;;;;;5015458;28;20152;-74
2022/10/25 00:24:44;;;;;;;4.80;1.98;;;11.60;99.90;;;;;;5015269;28;20057;-75
2022/10/25 00:27:10;;;;;;;6.15;2.20;;;11.60;99.90;;;;;;5014839;28;20034;-75
2022/10/25 00:29:35;;;;;;;4.35;1.83;;;11.60;99.90;;;;;;4998192;28;20415;-75
2022/10/25 00:32:01;;;;;;;6.07;2.00;;;11.60;99.90;;;;;;5027602;28;20032;-75
2022/10/25 00:34:26;;;;;;;4.88;1.80;;;11.60;99.90;;;;;;5003983;28;20463;-75
2022/10/25 00:36:52;;;;;;;6.03;1.95;;;11.50;99.90;;;;;;5004517;28;20030;-75
2022/10/25 00:39:17;;;;;;;4.25;2.00;;;11.50;99.90;;;;;;5028254;28;20026;-75
2022/10/25 00:41:43;;;;;;;2.92;1.77;;;11.60;99.90;;;;;;5015069;28;20029;-75
2022/10/25 00:44:39;;;;;;;4.82;1.80;;;11.50;99.90;;;;;;5021706;28;20030;-75
2022/10/25 00:47:19;;;;;;;3.83;1.77;;;11.60;99.90;;;;;;5021220;28;20036;-75
2022/10/25 00:50:04;;;;;;;4.43;2.00;;;11.60;99.90;;;;;;5022035;28;20530;-75
2022/10/25 00:52:34;;;;;;;4.75;1.70;;;11.50;99.90;;;;;;5006048;28;20025;-75
2022/10/25 00:55:01;;;;;;;4.03;1.80;;;11.40;99.90;;;;;;5003753;28;20406;-75
2022/10/25 00:57:32;;;;;;;3.70;1.92;;;11.50;99.90;;;;;;5024029;28;20538;-75
2022/10/25 00:59:59;;;;;;;3.28;1.70;;;11.50;99.90;;;;;;5018363;28;20030;-74
2022/10/25 01:02:25;;;;;;;3.05;1.83;;;11.40;99.90;;;;;;5024673;28;20026;-75
2022/10/25 01:04:51;;;;;;;8.68;1.70;;;11.40;99.90;;;;;;5027827;28;20026;-75
2022/10/25 01:07:17;;;;;;;5.78;1.75;;;11.40;99.90;;;;;;5024483;28;20079;-75
2022/10/25 01:09:43;;;;;;;3.10;1.65;;;11.30;99.90;;;;;;5030949;28;20033;-75
2022/10/25 01:12:08;;;;;;;3.25;1.50;;;11.30;99.90;;;;;;4996957;28;20030;-75
2022/10/25 01:14:37;;;;;;;3.03;1.80;;;11.30;99.90;;;;;;5013483;28;20356;-75
2022/10/25 01:17:26;;;;;;;5.72;1.50;;;11.20;99.90;;;;;;5033985;28;20018;-75
2022/10/25 01:20:29;;;;;;;6.90;2.30;;;11.20;99.90;;;;;;5021016;28;20040;-75
2022/10/25 01:23:32;;;;;;;2.35;1.40;;;11.10;99.90;;;;;;5020720;28;20029;-75
2022/10/25 01:26:10;;;;;;;4.10;1.70;;;11.10;99.90;;;;;;5020908;28;20021;-75
2022/10/25 01:29:01;;;;;;;3.92;1.70;;;11.20;99.90;;;;;;5021847;28;20037;-75
2022/10/25 01:31:34;;;;;;;2.15;1.63;;;11.10;99.90;;;;;;5022730;28;20026;-75
2022/10/25 01:34:09;;;;;;;5.55;1.67;;;11.30;99.90;;;;;;5020577;28;20467;-75
2022/10/25 01:36:50;;;;;;;2.58;1.40;;;11.10;99.90;;;;;;5022965;28;20111;-75
2022/10/25 01:39:35;;;;;;;6.68;1.52;;;11.00;99.90;;;;;;5009499;28;20022;-75
2022/10/25 01:42:27;;;;;;;3.42;1.50;;;11.00;99.90;;;;;;5016316;28;20097;-75
2022/10/25 01:44:58;;;;;;;3.28;1.40;;;11.00;99.90;;;;;;5003429;28;20057;-75
2022/10/25 01:47:31;;;;;;;5.65;1.60;;;11.00;99.90;;;;;;5015905;28;20487;-75
2022/10/25 01:50:09;;;;;;;3.35;1.60;;;11.00;99.90;;;;;;5015672;28;20471;-75
2022/10/25 01:52:35;;;;;;;4.10;1.50;;;11.00;99.90;;;;;;5006627;28;20092;-76
2022/10/25 01:55:01;;;;;;;3.97;2.00;;;11.00;99.90;;;;;;5026874;28;20014;-76
2022/10/25 01:57:50;;;;;;;6.10;1.70;;;11.00;99.90;;;;;;5004566;28;20018;-76
2022/10/25 02:00:21;;;;;;;3.20;1.73;;;10.90;99.90;;;;;;5033429;28;20085;-75
2022/10/25 02:03:41;;;;;;;5.25;1.60;;;10.80;99.90;;;;;;5033337;28;20017;-75
2022/10/25 02:06:33;;;;;;;4.75;1.75;;;10.90;99.90;;;;;;4933705;29;20028;-75
2022/10/25 02:09:07;;;;;;;3.97;1.60;;;10.80;99.90;;;;;;4924234;29;20647;-75
2022/10/25 02:11:33;;;;;;;3.22;1.60;;;10.80;99.90;;;;;;5003076;28;20037;-75
2022/10/25 02:14:21;;;;;;;5.03;1.63;;;10.80;99.90;;;;;;5021866;28;20029;-76
2022/10/25 02:16:52;;;;;;;4.57;1.60;;;10.80;99.90;;;;;;5020650;28;20021;-76
2022/10/25 02:19:24;;;;;;;3.13;1.48;;;10.70;99.90;;;;;;5019808;28;20029;-75
2022/10/25 02:21:52;;;;;;;4.60;1.73;;;10.80;99.90;;;;;;5032954;28;20104;-75
2022/10/25 02:24:21;;;;;;;3.78;1.65;;;10.80;99.90;;;;;;5015222;28;20030;-75
2022/10/25 02:26:49;;;;;;;3.63;1.80;;;10.70;99.90;;;;;;5022600;28;20026;-77
2022/10/25 02:29:17;;;;;;;7.47;1.63;;;10.70;99.90;;;;;;5016325;28;20041;-76
2022/10/25 02:31:43;;;;;;;3.85;1.58;;;10.70;99.90;;;;;;5022505;28;20503;-77
2022/10/25 02:34:09;;;;;;;4.18;1.80;;;10.70;99.90;;;;;;5026214;28;20030;-76
2022/10/25 02:36:35;;;;;;;8.15;1.70;;;10.70;99.90;;;;;;5022953;28;20097;-76
2022/10/25 02:39:02;;;;;;;3.80;1.40;;;10.80;99.90;;;;;;5019072;28;20460;-76
2022/10/25 02:41:27;;;;;;;4.15;1.50;;;10.80;99.90;;;;;;5014882;28;20025;-76
2022/10/25 02:43:53;;;;;;;4.60;1.52;;;10.90;99.90;;;;;;5010339;28;20168;-75
2022/10/25 02:46:21;;;;;;;2.17;1.38;;;11.00;99.90;;;;;;5023844;28;20071;-75
2022/10/25 02:48:47;;;;;;;4.03;1.48;;;11.10;99.90;;;;;;5018852;28;20029;-74
2022/10/25 02:51:14;;;;;;;2.75;1.33;;;11.10;99.90;;;;;;5020858;28;20029;-74
2022/10/25 02:53:39;;;;;;;4.60;1.30;;;11.10;99.90;;;;;;5025692;28;20058;-75
2022/10/25 02:56:08;;;;;;;4.15;1.35;;;11.10;99.90;;;;;;5024296;28;20549;-75
2022/10/25 02:58:36;;;;;;;3.08;1.35;;;11.10;99.90;;;;;;5014138;28;20021;-75
2022/10/25 03:01:03;;;;;;;2.88;1.20;;;11.10;99.90;;;;;;5002002;28;20029;-75
2022/10/25 03:03:29;;;;;;;6.47;1.42;;;11.10;99.90;;;;;;5000562;28;20033;-75
2022/10/25 03:05:55;;;;;;;3.47;1.10;;;11.10;99.90;;;;;;5014517;28;20029;-76
2022/10/25 03:08:21;;;;;;;3.33;1.38;;;11.00;99.90;;;;;;5018616;28;20104;-76
2022/10/25 03:10:47;;;;;;;3.00;1.52;;;11.00;99.90;;;;;;5014320;28;20087;-75
2022/10/25 03:13:13;;;;;;;4.90;1.50;;;11.00;99.90;;;;;;5026391;28;20545;-75
2022/10/25 03:15:38;;;;;;;3.13;1.23;;;11.00;99.90;;;;;;5024651;28;20057;-75
2022/10/25 03:18:04;;;;;;;3.92;1.30;;;11.00;99.90;;;;;;5000975;28;20052;-75
2022/10/25 03:20:30;;;;;;;2.20;1.13;;;11.00;99.90;;;;;;5019459;28;20021;-74
2022/10/25 03:22:55;;;;;;;2.08;1.13;;;10.90;99.90;;;;;;5030949;28;20080;-76
2022/10/25 03:25:21;;;;;;;3.95;1.20;;;11.00;99.90;;;;;;5002034;28;20068;-75
2022/10/25 03:27:47;;;;;;;2.55;1.10;;;11.00;99.90;;;;;;5007251;28;20034;-76
2022/10/25 03:30:13;;;;;;;2.45;1.40;;;11.00;99.90;;;;;;5024398;28;20025;-75
2022/10/25 03:32:39;;;;;;;4.78;1.50;;;11.10;99.90;;;;;;5018457;28;20537;-76
2022/10/25 03:35:06;;;;;;;3.05;1.20;;;11.00;99.90;;;;;;5019624;28;20030;-76
2022/10/25 03:37:31;;;;;;;3.72;1.73;;;11.00;99.90;;;;;;5024794;28;20026;-76
2022/10/25 03:39:57;;;;;;;6.50;1.75;;;11.00;99.90;;;;;;5006958;28;20498;-76
2022/10/25 03:42:22;;;;;;;4.13;1.67;;;10.90;99.90;;;;;;5000240;28;20065;-74
2022/10/25 03:44:48;;;;;;;5.28;1.67;;;10.90;99.90;;;;;;5031648;28;20038;-76
2022/10/25 03:47:13;;;;;;;4.80;1.23;;;10.80;99.90;;;;;;5018063;28;20543;-75
2022/10/25 03:49:39;;;;;;;5.00;1.63;;;10.80;99.90;;;;;;5002436;28;20071;-76
2022/10/25 03:52:06;;;;;;;5.35;1.60;;;10.80;99.90;;;;;;5007463;28;20040;-76
2022/10/25 03:54:32;;;;;;;3.17;1.58;;;10.80;99.90;;;;;;5023514;28;20044;-77
2022/10/25 03:56:58;;;;;;;5.90;1.48;;;10.80;99.90;;;;;;5018032;28;20029;-75
2022/10/25 03:59:24;;;;;;;4.20;1.70;;;10.90;99.90;;;;;;5019937;28;20026;-75
2022/10/25 04:01:50;;;;;;;3.80;1.30;;;10.90;99.90;;;;;;5024934;28;20038;-75
2022/10/25 04:04:15;;;;;;;2.15;1.27;;;10.90;99.90;;;;;;5023185;28;20483;-75
2022/10/25 04:06:41;;;;;;;4.07;1.52;;;11.00;99.90;;;;;;5031296;28;20040;-75
2022/10/25 04:09:06;;;;;;;4.25;1.35;;;10.90;99.90;;;;;;5002299;28;20483;-76
2022/10/25 04:11:32;;;;;;;7.53;1.58;;;10.80;99.90;;;;;;5024683;28;20026;-75
2022/10/25 04:13:58;;;;;;;4.22;1.45;;;10.80;99.90;;;;;;5023066;28;20112;-75
2022/10/25 04:16:24;;;;;;;5.13;1.20;;;10.80;99.90;;;;;;5018152;28;20100;-75
2022/10/25 04:18:52;;;;;;;4.30;1.45;;;10.80;99.90;;;;;;5019696;28;20105;-75
2022/10/25 04:21:18;;;;;;;6.07;1.35;;;10.70;99.90;;;;;;5024740;28;20476;-74
2022/10/25 04:23:43;;;;;;;2.72;1.35;;;10.70;99.90;;;;;;5023509;28;20034;-76
2022/10/25 04:26:09;;;;;;;4.38;1.25;;;10.70;99.90;;;;;;5000386;28;20029;-76
2022/10/25 04:28:35;;;;;;;3.03;1.52;;;10.70;99.90;;;;;;5018897;28;20491;-76
2022/10/25 04:31:01;;;;;;;3.88;1.40;;;10.80;99.90;;;;;;5024443;28;20113;-74
2022/10/25 04:33:27;;;;;;;5.15;1.60;;;10.80;99.90;;;;;;5008098;28;20025;-75
2022/10/25 04:35:56;;;;;;;6.13;1.48;;;10.80;99.90;;;;;;5004224;28;20028;-74
2022/10/25 04:38:22;;;;;;;3.85;1.30;;;10.80;99.90;;;;;;5016989;28;20021;-76
2022/10/25 04:40:56;;;;;;;2.78;1.30;;;10.80;99.90;;;;;;5021589;28;20038;-75
2022/10/25 04:43:22;;;;;;;6.80;1.50;;;10.80;99.90;;;;;;5021544;28;20018;-76
2022/10/25 04:45:48;;;;;;;3.47;1.55;;;10.80;99.90;;;;;;5028095;28;20057;-74
2022/10/25 04:48:14;;;;;;;4.95;1.77;;;10.80;99.90;;;;;;5028053;28;20049;-76
2022/10/25 04:50:39;;;;;;;3.90;1.30;;;10.80;99.90;;;;;;5028018;28;20057;-76
2022/10/25 04:53:05;;;;;;;4.15;1.70;;;10.80;99.90;;;;;;5028135;28;20037;-76
2022/10/25 04:55:31;;;;;;;3.45;1.20;;;10.80;99.90;;;;;;5034546;28;20033;-76
2022/10/25 04:57:56;;;;;;;8.90;1.67;;;10.80;99.90;;;;;;5034382;28;20026;-76
2022/10/25 05:00:22;;;;;;;5.65;1.70;;;10.80;99.90;;;;;;5021266;28;20467;-76
2022/10/25 05:02:51;;;;;;;3.80;1.50;;;10.80;99.90;;;;;;5033975;28;20037;-75
2022/10/25 05:05:17;;;;;;;4.05;1.30;;;10.80;99.90;;;;;;5034221;28;20027;-75
2022/10/25 05:07:42;;;;;;;5.20;1.80;;;10.80;99.90;;;;;;5033417;28;20103;-74
2022/10/25 05:10:08;;;;;;;3.72;1.42;;;10.80;99.90;;;;;;5025209;28;20498;-75
2022/10/25 05:12:34;;;;;;;3.47;1.80;;;10.80;99.90;;;;;;5026161;28;20030;-76
2022/10/25 05:14:59;;;;;;;6.35;1.58;;;10.80;99.90;;;;;;5014516;28;20030;-76
2022/10/25 05:17:25;;;;;;;5.32;1.55;;;10.70;99.90;;;;;;5014368;28;20130;-74
2022/10/25 05:19:50;;;;;;;4.97;1.73;;;10.70;99.90;;;;;;5014446;28;20057;-74
2022/10/25 05:22:16;;;;;;;3.95;1.50;;;10.60;99.90;;;;;;5014355;28;20034;-75
2022/10/25 05:24:41;;;;;;;3.90;1.40;;;10.60;99.90;;;;;;5020875;28;20029;-74
2022/10/25 05:27:07;;;;;;;4.88;1.58;;;10.70;99.90;;;;;;5016153;28;20036;-75
2022/10/25 05:29:32;;;;;;;2.45;1.65;;;10.70;99.90;;;;;;5027564;28;20030;-75
2022/10/25 05:31:58;;;;;;;4.55;1.60;;;10.80;99.90;;;;;;5009332;28;20028;-75
2022/10/25 05:34:24;;;;;;;2.10;1.33;;;10.70;99.90;;;;;;5016339;28;20104;-75
2022/10/25 05:36:50;;;;;;;4.13;1.65;;;10.70;99.90;;;;;;5020593;28;20030;-75
2022/10/25 05:39:15;;;;;;;3.28;1.50;;;10.70;99.90;;;;;;5027201;28;20026;-75
2022/10/25 05:41:41;;;;;;;3.67;1.90;;;10.70;99.90;;;;;;5013896;28;20029;-76
2022/10/25 05:44:07;;;;;;;3.28;2.10;;;10.70;99.90;;;;;;5009211;28;20026;-76
2022/10/25 05:46:32;;;;;;;6.75;3.85;;;10.70;99.90;;;;;;5008770;28;20112;-76
2022/10/25 05:48:59;;;;;;;4.35;2.95;;;10.70;99.90;;;;;;5027271;28;20076;-76
2022/10/25 05:51:27;;;;;;;10.93;5.60;;;10.70;99.90;;;;;;5026357;28;20040;-76
2022/10/25 05:53:55;;;;;;;10.60;5.28;;;10.70;99.90;;;;;;5002349;28;20048;-73
2022/10/25 05:56:23;;;;;;;15.73;8.95;;;10.80;99.90;;;;;;5020295;28;20431;-76
2022/10/25 05:58:48;;;;;;;8.93;4.40;;;10.70;99.90;;;;;;5020211;28;20028;-75
2022/10/25 06:01:17;;;;;;;7.50;3.95;;;10.80;99.90;;;;;;5033456;28;20029;-75
2022/10/25 06:03:42;;;;;;;9.70;5.32;;;10.80;99.90;;;;;;5020461;28;20055;-76
2022/10/25 06:06:10;;;;;;;9.35;4.80;;;10.80;99.90;;;;;;5019852;28;20116;-75
2022/10/25 06:08:37;;;;;;;8.73;5.97;;;10.80;99.90;;;;;;5033064;28;20475;-75
2022/10/25 06:11:15;;;;;;;23.30;16.23;;;10.90;99.90;;;;;;5019996;28;20033;-75
2022/10/25 06:13:41;;;;;;;8.45;5.05;;;10.80;99.90;;;;;;5033202;28;20060;-75
2022/10/25 06:16:09;;;;;;;6.55;3.97;;;10.90;99.90;;;;;;5012953;28;20029;-75
2022/10/25 06:18:37;;;;;;;4.53;2.58;;;11.00;99.90;;;;;;5022222;28;20029;-75
2022/10/25 06:21:06;;;;;;;6.13;2.20;;;10.90;99.90;;;;;;5019801;28;20159;-75
2022/10/25 06:23:31;;;;;;;6.78;2.97;;;10.90;99.90;;;;;;5022894;28;20492;-75
2022/10/25 06:26:03;;;;;;;18.20;14.02;;;10.90;99.90;;;;;;5026542;28;20026;-76
2022/10/25 06:28:29;;;;;;;13.40;8.30;;;10.90;99.90;;;;;;5023150;28;20045;-76
2022/10/25 06:31:03;;;;;;;41.40;24.85;;;11.00;99.90;;;;;;5029462;28;20026;-75
2022/10/25 06:33:29;;;;;;;62.80;36.72;;;11.00;99.90;;;;;;5013058;28;20096;-76
2022/10/25 06:35:56;;;;;;;32.78;19.90;;;11.10;99.90;;;;;;5026153;28;20369;-76
2022/10/25 06:38:22;;;;;;;104.47;55.17;;;11.10;99.90;;;;;;5006491;28;20368;-76
2022/10/25 06:40:48;;;;;;;40.70;21.63;;;11.20;99.90;;;;;;4996806;28;20495;-76
2022/10/25 06:43:13;;;;;;;125.25;67.28;;;11.20;99.90;;;;;;5025097;28;20113;-76
2022/10/25 06:45:40;;;;;;;96.05;51.17;;;11.30;99.90;;;;;;5019497;28;20156;-76
2022/10/25 06:48:06;;;;;;;48.05;23.90;;;11.30;99.90;;;;;;5019859;28;20502;-76
2022/10/25 06:50:31;;;;;;;40.65;19.52;;;11.40;99.90;;;;;;5008321;28;20022;-76
2022/10/25 06:52:57;;;;;;;19.67;8.98;;;11.40;99.90;;;;;;5024830;28;20160;-76
2022/10/25 06:55:23;;;;;;;40.22;18.40;;;11.40;99.90;;;;;;5000959;28;20092;-76
2022/10/25 06:57:48;;;;;;;16.38;6.57;;;11.40;99.90;;;;;;5002199;28;20452;-76
2022/10/25 07:00:14;;;;;;;21.88;9.90;;;11.50;99.90;;;;;;5025689;28;20068;-76
2022/10/25 07:02:39;;;;;;;55.38;26.63;;;11.50;99.90;;;;;;5024527;28;20113;-76
2022/10/25 07:05:05;;;;;;;32.30;13.88;;;11.60;99.90;;;;;;5001418;28;20491;-76
2022/10/25 07:07:31;;;;;;;34.90;15.93;;;11.70;99.90;;;;;;5002227;28;20037;-76
2022/10/25 07:09:56;;;;;;;14.57;6.18;;;11.70;99.90;;;;;;5008297;28;20036;-77
2022/10/25 07:12:22;;;;;;;15.07;5.35;;;11.70;99.90;;;;;;5006552;28;20029;-76
2022/10/25 07:14:47;;;;;;;7.65;4.00;;;11.70;99.90;;;;;;5017425;28;20040;-78
2022/10/25 07:17:13;;;;;;;10.07;3.92;;;11.70;99.90;;;;;;5001060;28;20018;-78
2022/10/25 07:19:38;;;;;;;9.45;4.60;;;11.70;99.90;;;;;;5024554;28;20022;-76
2022/10/25 07:22:04;;;;;;;9.75;4.85;;;11.70;99.90;;;;;;5023135;28;20100;-76
2022/10/25 07:24:30;;;;;;;6.55;4.05;;;11.60;99.90;;;;;;5031035;28;20201;-76
2022/10/25 07:26:55;;;;;;;7.03;3.80;;;11.60;99.90;;;;;;5030708;28;20033;-77
2022/10/25 07:29:21;;;;;;;10.05;5.22;;;11.60;99.90;;;;;;5026550;28;20032;-77
2022/10/25 07:31:46;;;;;;;11.20;4.68;;;11.70;99.90;;;;;;5023962;28;20104;-77
2022/10/25 07:34:13;;;;;;;6.60;2.65;;;11.70;99.90;;;;;;5000851;28;20056;-75
2022/10/25 07:36:40;;;;;;;6.90;2.38;;;11.70;99.90;;;;;;5022238;28;20022;-77
2022/10/25 07:39:06;;;;;;;5.20;2.13;;;11.70;99.90;;;;;;5014099;28;20491;-77
2022/10/25 07:41:31;;;;;;;7.28;2.42;;;11.70;99.90;;;;;;5043916;28;20028;-77
2022/10/25 07:43:57;;;;;;;5.13;2.08;;;11.70;99.90;;;;;;5036420;28;20033;-75
2022/10/25 07:46:23;;;;;;;6.00;2.10;;;11.80;99.90;;;;;;5014038;28;20504;-75
2022/10/25 07:48:48;;;;;;;4.38;1.65;;;11.80;99.90;;;;;;5026500;28;20041;-75
2022/10/25 07:51:15;;;;;;;5.65;1.77;;;11.80;99.90;;;;;;5011694;28;20026;-75
2022/10/25 07:53:41;;;;;;;7.65;1.80;;;11.80;99.90;;;;;;4994315;28;20029;-76
2022/10/25 07:56:14;;;;;;;6.20;1.85;;;11.90;99.90;;;;;;4994343;28;20022;-76
2022/10/25 07:58:39;;;;;;;4.35;1.90;;;11.90;99.90;;;;;;4994087;28;20022;-76
2022/10/25 08:01:07;;;;;;;6.82;2.20;;;11.90;99.90;;;;;;4994231;28;20033;-77
2022/10/25 08:03:33;;;;;;;6.68;2.17;;;11.90;99.90;;;;;;5017290;28;20057;-76
2022/10/25 08:06:00;;;;;;;6.30;2.45;;;11.90;99.90;;;;;;5019379;28;20069;-76
2022/10/25 08:08:26;;;;;;;4.40;2.08;;;12.20;99.90;;;;;;5028468;28;20503;-76
2022/10/25 08:10:52;;;;;;;6.68;2.20;;;12.00;99.90;;;;;;5028035;28;20034;-76
2022/10/25 08:13:18;;;;;;;6.25;2.10;;;12.10;99.90;;;;;;5022268;28;20027;-76
2022/10/25 08:15:51;;;;;;;7.85;1.73;;;12.10;99.90;;;;;;5005138;28;20041;-76
2022/10/25 08:18:17;;;;;;;5.72;1.80;;;12.10;99.90;;;;;;5015268;28;20667;-76
2022/10/25 08:20:42;;;;;;;4.70;1.52;;;12.20;99.90;;;;;;5010960;28;20029;-76
2022/10/25 08:23:08;;;;;;;5.63;1.80;;;12.10;99.90;;;;;;5022395;28;20030;-76
2022/10/25 08:25:33;;;;;;;5.20;2.03;;;12.20;99.90;;;;;;5021945;28;20065;-76
2022/10/25 08:27:59;;;;;;;9.25;2.03;;;12.30;99.90;;;;;;5010550;28;20121;-76
2022/10/25 08:30:24;;;;;;;3.47;2.00;;;12.40;99.90;;;;;;5028561;28;20527;-76
2022/10/25 08:32:50;;;;;;;6.35;2.08;;;12.40;99.90;;;;;;5021552;28;20375;-76
2022/10/25 08:35:16;;;;;;;5.82;2.25;;;12.50;99.90;;;;;;5022036;28;20113;-76
2022/10/25 08:37:42;;;;;;;5.75;2.20;;;12.60;99.90;;;;;;5028149;28;20534;-76
2022/10/25 08:40:17;;;;;;;7.82;2.20;;;12.60;99.90;;;;;;5027994;28;20018;-76
2022/10/25 08:42:48;;;;;;;5.13;2.05;;;12.70;99.90;;;;;;5026993;28;20061;-76
2022/10/25 08:45:25;;;;;;;7.00;2.30;;;12.70;99.90;;;;;;5028405;28;20095;-76
2022/10/25 08:47:53;;;;;;;7.93;2.53;;;12.70;99.90;;;;;;5025120;28;20057;-76
2022/10/25 08:50:25;;;;;;;6.80;2.10;;;12.90;99.90;;;;;;5030860;28;20038;-75
2022/10/25 08:53:02;;;;;;;7.70;2.35;;;12.90;99.90;;;;;;4997363;28;20034;-75
2022/10/25 08:55:32;;;;;;;9.30;2.60;;;13.00;99.90;;;;;;5016327;28;20060;-75
2022/10/25 08:57:59;;;;;;;8.52;2.50;;;13.00;99.90;;;;;;5034357;28;20037;-75
2022/10/25 09:00:34;;;;;;;6.78;2.33;;;13.20;99.90;;;;;;5003908;28;20028;-74
2022/10/25 09:03:01;;;;;;;6.90;2.17;;;13.10;99.90;;;;;;5021297;28;20022;-75
2022/10/25 09:05:37;;;;;;;6.72;2.30;;;13.20;99.90;;;;;;5034393;28;20268;-75
2022/10/25 09:08:07;;;;;;;4.75;2.47;;;13.20;99.90;;;;;;5002965;28;20026;-75
2022/10/25 09:11:01;;;;;;;6.72;2.30;;;13.20;99.90;;;;;;5034168;28;20025;-75
2022/10/25 09:13:39;;;;;;;7.18;2.42;;;13.30;99.90;;;;;;5003409;28;20038;-75
2022/10/25 09:16:20;;;;;;;6.40;2.50;;;13.40;99.90;;;;;;5033837;28;20537;-75
2022/10/25 09:18:53;;;;;;;4.45;2.20;;;13.40;99.90;;;;;;5022410;28;20038;-76
2022/10/25 09:21:45;;;;;;;7.05;2.67;;;13.40;99.90;;;;;;5001532;28;20056;-75
2022/10/25 09:24:35;;;;;;;7.70;2.63;;;13.50;99.90;;;;;;4996515;28;20034;-76
2022/10/25 09:27:16;;;;;;;7.32;2.60;;;13.70;99.90;;;;;;5022110;28;20033;-76
2022/10/25 09:29:57;;;;;;;6.55;2.75;;;13.70;99.90;;;;;;5031038;28;20022;-76
2022/10/25 09:32:36;;;;;;;8.38;3.03;;;13.80;99.90;;;;;;5020405;28;20084;-76
2022/10/25 09:35:05;;;;;;;7.22;2.33;;;13.80;99.90;;;;;;5016209;28;20506;-76
2022/10/25 09:37:44;;;;;;;5.85;2.20;;;13.90;99.90;;;;;;5027553;28;20107;-76
2022/10/25 09:40:18;;;;;;;6.78;2.42;;;14.10;99.90;;;;;;5021262;28;20079;-76
2022/10/25 09:43:13;;;;;;;5.53;2.05;;;14.00;99.90;;;;;;5022267;28;20033;-76
2022/10/25 09:46:03;;;;;;;5.90;2.60;;;14.20;99.90;;;;;;5020325;28;20017;-76
2022/10/25 09:48:37;;;;;;;6.95;2.50;;;14.40;99.90;;;;;;5026816;28;20028;-75
2022/10/25 09:51:23;;;;;;;5.70;2.58;;;14.50;99.90;;;;;;5013885;28;20033;-75
2022/10/25 09:53:50;;;;;;;5.63;2.17;;;14.50;99.90;;;;;;5032913;28;20499;-75
2022/10/25 09:56:16;;;;;;;6.05;2.10;;;14.30;99.90;;;;;;5020984;28;20563;-75
2022/10/25 09:58:46;;;;;;;8.50;2.25;;;14.30;99.90;;;;;;5013571;28;20026;-75
2022/10/25 10:01:25;;;;;;;8.57;3.28;;;14.40;99.90;;;;;;5026836;28;20514;-76
2022/10/25 10:03:52;;;;;;;10.73;2.83;;;14.40;99.90;;;;;;5033434;28;20036;-76
2022/10/25 10:06:36;;;;;;;7.40;2.85;;;14.40;99.90;;;;;;5018285;28;20033;-76
2022/10/25 10:09:06;;;;;;;6.70;2.25;;;14.40;99.90;;;;;;5013580;28;20026;-76
2022/10/25 10:11:32;;;;;;;12.00;2.83;;;14.40;99.90;;;;;;5031110;28;20060;-75
2022/10/25 10:14:34;;;;;;;7.10;2.40;;;14.50;99.90;;;;;;5004260;28;20480;-76
2022/10/25 10:17:00;;;;;;;8.73;2.80;;;14.70;99.90;;;;;;5010192;28;20034;-75
2022/10/25 10:19:31;;;;;;;7.68;2.50;;;14.70;99.90;;;;;;4995701;28;20030;-75
2022/10/25 10:22:00;;;;;;;6.35;2.97;;;14.60;99.90;;;;;;5023214;28;20021;-76
2022/10/25 10:24:34;;;;;;;6.93;2.55;;;14.60;99.90;;;;;;5016156;28;20049;-75
2022/10/25 10:27:05;;;;;;;5.05;2.20;;;14.70;99.90;;;;;;5006601;28;20029;-76
2022/10/25 10:29:50;;;;;;;12.90;2.92;;;14.60;99.90;;;;;;5029918;28;20030;-76
2022/10/25 10:32:26;;;;;;;5.90;2.47;;;14.60;99.90;;;;;;5031416;28;20076;-75
2022/10/25 10:34:55;;;;;;;7.28;2.78;;;14.50;99.90;;;;;;5013377;28;20051;-75
2022/10/25 10:37:31;;;;;;;9.70;2.30;;;14.50;99.90;;;;;;5015631;28;20045;-75
2022/10/25 10:40:23;;;;;;;6.20;2.35;;;14.70;99.90;;;;;;5033568;28;20025;-77
2022/10/25 10:42:49;;;;;;;9.45;2.90;;;14.80;99.90;;;;;;5029906;28;20034;-75
2022/10/25 10:45:18;;;;;;;6.43;1.92;;;14.80;99.90;;;;;;5015506;28;20083;-75
2022/10/25 10:47:49;;;;;;;6.93;2.78;;;15.00;99.90;;;;;;5023172;28;20025;-75
2022/10/25 10:50:21;;;;;;;4.82;1.92;;;15.30;99.90;;;;;;5012735;28;20026;-75
2022/10/25 10:53:07;;;;;;;6.75;3.13;;;15.30;99.90;;;;;;5012712;28;20029;-75
2022/10/25 10:55:45;;;;;;;8.68;2.55;;;15.30;99.90;;;;;;5019904;28;20125;-75
2022/10/25 10:58:17;;;;;;;7.10;1.95;;;15.20;99.90;;;;;;5018840;28;20037;-75
2022/10/25 11:01:07;;;;;;;5.18;1.80;;;15.10;99.90;;;;;;5005348;28;20022;-75
2022/10/25 11:03:34;;;;;;;8.05;2.10;;;15.00;99.90;;;;;;5025811;28;20018;-75
2022/10/25 11:05:59;;;;;;;12.15;3.45;;;14.90;99.90;;;;;;5012599;28;20398;-75
2022/10/25 11:08:25;;;;;;;11.02;2.55;;;15.10;99.90;;;;;;5014032;28;20032;-75
2022/10/25 11:10:51;;;;;;;5.55;1.75;;;15.10;99.90;;;;;;5019332;28;20030;-75
2022/10/25 11:13:18;;;;;;;4.97;2.40;;;15.30;99.90;;;;;;5031702;28;20179;-75
2022/10/25 11:16:02;;;;;;;7.40;2.05;;;15.30;99.90;;;;;;5032109;28;20025;-75
2022/10/25 11:18:37;;;;;;;9.55;2.20;;;15.20;99.90;;;;;;5021167;28;20056;-75
2022/10/25 11:21:46;;;;;;;6.53;2.15;;;15.20;99.90;;;;;;5014382;28;20021;-75
2022/10/25 11:24:40;;;;;;;6.50;1.92;;;15.30;99.90;;;;;;4983492;28;20494;-75
2022/10/25 11:27:32;;;;;;;5.80;1.92;;;15.40;99.90;;;;;;5025229;28;20029;-75
2022/10/25 11:30:18;;;;;;;6.82;2.03;;;15.20;99.90;;;;;;5022346;28;20022;-76
2022/10/25 11:33:08;;;;;;;7.43;1.60;;;15.40;99.90;;;;;;5018557;28;20495;-76
2022/10/25 11:36:03;;;;;;;5.65;1.75;;;15.20;99.90;;;;;;5018561;28;20472;-76
2022/10/25 11:38:46;;;;;;;4.55;1.80;;;15.10;99.90;;;;;;5018450;28;20014;-76
2022/10/25 11:41:36;;;;;;;3.47;1.55;;;15.30;99.90;;;;;;5030954;28;20456;-76
2022/10/25 11:44:19;;;;;;;5.43;1.80;;;15.40;99.90;;;;;;5026455;28;20427;-76
2022/10/25 11:47:18;;;;;;;7.03;1.80;;;15.60;99.90;;;;;;5008868;28;20476;-76
2022/10/25 11:49:57;;;;;;;9.27;2.13;;;15.70;99.90;;;;;;5014004;28;20116;-76
2022/10/25 11:52:47;;;;;;;8.18;2.40;;;15.70;99.90;;;;;;5019766;28;20021;-76
2022/10/25 11:55:48;;;;;;;5.68;2.03;;;15.60;99.90;;;;;;5000769;28;20025;-76
2022/10/25 11:58:41;;;;;;;5.28;2.03;;;15.80;99.90;;;;;;5031268;28;20064;-76
2022/10/25 12:01:28;;;;;;;8.18;1.70;;;16.20;99.90;;;;;;5018102;28;20030;-76
2022/10/25 12:04:18;;;;;;;8.73;1.85;;;16.30;99.90;;;;;;5022157;28;20384;-76
2022/10/25 12:07:05;;;;;;;5.82;1.60;;;16.50;99.90;;;;;;5025008;28;20026;-76
2022/10/25 12:09:36;;;;;;;6.18;2.10;;;16.20;99.90;;;;;;5024925;28;20387;-76
2022/10/25 12:12:09;;;;;;;6.95;1.70;;;16.10;99.90;;;;;;5021300;28;20025;-75
2022/10/25 12:14:38;;;;;;;4.82;1.60;;;16.10;99.90;;;;;;5031396;28;20025;-76
2022/10/25 12:17:15;;;;;;;3.70;1.50;;;16.10;99.90;;;;;;5002708;28;20484;-75
2022/10/25 12:19:47;;;;;;;6.55;1.95;;;16.20;99.90;;;;;;5024953;28;20053;-76
2022/10/25 12:22:38;;;;;;;5.68;1.92;;;16.10;99.90;;;;;;5007304;28;20125;-76
2022/10/25 12:25:17;;;;;;;5.78;1.92;;;16.00;99.90;;;;;;5012426;28;20255;-76
2022/10/25 12:27:45;;;;;;;6.03;1.65;;;15.90;99.90;;;;;;5030913;28;20037;-75
2022/10/25 12:30:17;;;;;;;3.72;1.65;;;15.90;99.90;;;;;;5019905;28;20496;-76
2022/10/25 12:32:54;;;;;;;8.90;1.80;;;16.10;99.90;;;;;;5012686;28;20092;-74
2022/10/25 12:35:25;;;;;;;5.75;1.60;;;16.00;99.90;;;;;;5031136;28;20037;-74
2022/10/25 12:37:58;;;;;;;4.65;1.83;;;16.20;99.90;;;;;;5022807;28;20022;-74
2022/10/25 12:40:25;;;;;;;11.60;2.72;;;16.00;99.90;;;;;;5009301;28;20021;-74
2022/10/25 12:43:06;;;;;;;5.68;2.17;;;16.00;99.90;;;;;;5031252;28;20032;-75
2022/10/25 12:45:53;;;;;;;3.97;1.20;;;16.00;99.90;;;;;;5031145;28;20079;-75
2022/10/25 12:48:41;;;;;;;5.00;1.50;;;16.10;99.90;;;;;;5017503;28;20032;-75
2022/10/25 12:51:25;;;;;;;5.15;1.38;;;15.90;99.90;;;;;;5031166;28;20067;-75
2022/10/25 12:54:12;;;;;;;8.18;2.40;;;15.80;99.90;;;;;;5008238;28;20018;-75
2022/10/25 12:57:13;;;;;;;7.97;1.90;;;15.80;99.90;;;;;;5014773;28;20053;-75
2022/10/25 13:00:02;;;;;;;7.75;1.60;;;15.60;99.90;;;;;;5027981;28;20057;-75
2022/10/25 13:02:58;;;;;;;6.50;1.70;;;15.50;99.90;;;;;;5025590;28;20030;-75
2022/10/25 13:05:36;;;;;;;6.43;1.30;;;15.60;99.90;;;;;;5023066;28;20496;-74
2022/10/25 13:08:04;;;;;;;6.00;1.38;;;15.80;99.90;;;;;;5021211;28;20414;-75